createdAt,value
2023-12-22T00:01:19.039Z,97823.46
2023-12-22T00:03:49.047Z,97817.54
2023-12-22T00:06:16.381Z,97813.00
2023-12-22T00:08:43.866Z,97806.91
2023-12-22T00:11:11.078Z,97808.38
2023-12-22T00:13:38.232Z,97809.07
2023-12-22T00:16:05.932Z,97803.48
2023-12-22T00:18:33.384Z,97797.79
2023-12-22T00:21:01.581Z,97795.00
2023-12-22T00:23:28.794Z,97784.64
2023-12-22T00:25:56.036Z,97785.67
2023-12-22T00:28:23.392Z,97784.70
2023-12-22T00:30:50.609Z,97777.30
2023-12-22T00:33:17.810Z,97778.66
2023-12-22T00:35:45.084Z,97771.19
2023-12-22T00:38:12.231Z,97763.44
2023-12-22T00:40:39.481Z,97762.61
2023-12-22T00:43:06.807Z,97762.32
2023-12-22T00:45:33.937Z,97747.37
2023-12-22T00:48:01.193Z,97738.78
2023-12-22T00:50:28.411Z,97732.23
2023-12-22T00:52:55.685Z,97724.46
2023-12-22T00:55:23.026Z,97718.44
2023-12-22T00:57:50.423Z,97706.75
2023-12-22T01:00:18.441Z,97709.38
2023-12-22T01:02:45.661Z,97707.83
2023-12-22T01:05:13.013Z,97709.27
2023-12-22T01:07:40.474Z,97700.45
2023-12-22T01:10:08.476Z,97687.85
2023-12-22T01:12:35.904Z,97686.23
2023-12-22T01:15:03.148Z,97680.96
2023-12-22T01:17:30.588Z,97677.00
2023-12-22T01:19:57.879Z,97676.61
2023-12-22T01:22:25.126Z,97668.16
2023-12-22T01:24:52.308Z,97664.98
2023-12-22T01:27:19.494Z,97662.84
2023-12-22T01:29:46.698Z,97662.73
2023-12-22T01:32:13.869Z,97659.83
2023-12-22T01:34:41.723Z,97664.17
2023-12-22T01:37:10.408Z,97662.92
2023-12-22T01:39:37.577Z,97665.56
2023-12-22T01:42:05.177Z,97658.14
2023-12-22T01:44:32.322Z,97654.52
2023-12-22T01:46:59.519Z,97650.92
2023-12-22T01:49:27.296Z,97649.30
2023-12-22T01:51:54.719Z,97637.71
2023-12-22T01:54:21.947Z,97629.00
2023-12-22T01:56:49.132Z,97620.30
2023-12-22T01:59:16.324Z,97613.67
2023-12-22T02:01:45.545Z,97607.89
2023-12-22T02:04:12.838Z,97602.61
2023-12-22T02:06:39.970Z,97597.23
2023-12-22T02:09:07.209Z,97601.06
2023-12-22T02:11:34.353Z,97599.45
2023-12-22T02:14:01.526Z,97597.01
2023-12-22T02:16:45.295Z,97593.26
2023-12-22T02:19:27.975Z,97597.00
2023-12-22T02:22:08.699Z,97582.02
2023-12-22T02:24:37.436Z,97577.95
2023-12-22T02:27:13.691Z,97570.23
2023-12-22T02:29:44.737Z,97569.84
2023-12-22T02:32:13.592Z,97568.41
2023-12-22T02:34:40.870Z,97569.77
2023-12-22T02:37:09.838Z,97570.73
2023-12-22T02:39:37.018Z,97572.17
2023-12-22T02:42:05.860Z,97569.98
2023-12-22T02:44:33.046Z,97574.02
2023-12-22T02:47:00.260Z,97570.40
2023-12-22T02:49:27.680Z,97561.32
2023-12-22T02:51:54.936Z,97557.80
2023-12-22T02:54:22.157Z,97552.05
2023-12-22T02:56:49.324Z,97551.25
2023-12-22T02:59:16.716Z,97546.11
2023-12-22T03:01:44.016Z,97545.02
2023-12-22T03:04:11.228Z,97543.13
2023-12-22T03:06:38.363Z,97537.85
2023-12-22T03:09:06.121Z,97534.52
2023-12-22T03:11:33.389Z,97528.59
2023-12-22T03:14:00.554Z,97518.73
2023-12-22T03:16:27.777Z,97517.60
2023-12-22T03:18:54.911Z,97514.23
2023-12-22T03:21:22.433Z,97513.13
2023-12-22T03:23:49.588Z,97518.52
2023-12-22T03:26:16.993Z,97515.80
2023-12-22T03:28:44.174Z,97516.81
2023-12-22T03:31:11.694Z,97516.59
2023-12-22T03:33:38.858Z,97515.60
2023-12-22T03:36:06.155Z,97513.40
2023-12-22T03:38:33.285Z,97510.76
2023-12-22T03:41:00.901Z,97497.61
2023-12-22T03:43:28.183Z,97498.46
2023-12-22T03:45:55.354Z,97488.79
2023-12-22T03:48:22.551Z,97491.65
2023-12-22T03:50:49.887Z,97494.77
2023-12-22T03:53:17.618Z,97503.10
2023-12-22T03:55:44.828Z,97513.14
2023-12-22T03:58:12.048Z,97523.61
2023-12-22T04:00:39.265Z,97525.02
2023-12-22T04:03:06.700Z,97535.13
2023-12-22T04:05:33.996Z,97539.17
2023-12-22T04:08:01.354Z,97531.75
2023-12-22T04:10:28.721Z,97528.05
2023-12-22T04:12:55.914Z,97523.64
2023-12-22T04:15:23.077Z,97521.65
2023-12-22T04:17:51.071Z,97518.84
2023-12-22T04:20:18.426Z,97518.18
2023-12-22T04:22:45.739Z,97516.59
2023-12-22T04:25:13.054Z,97516.09
2023-12-22T04:27:40.275Z,97512.95
2023-12-22T04:30:08.323Z,97503.42
2023-12-22T04:32:35.528Z,97500.05
2023-12-22T04:35:02.905Z,97500.40
2023-12-22T04:37:30.149Z,97483.65
2023-12-22T04:39:57.415Z,97476.80
2023-12-22T04:42:26.537Z,97468.09
2023-12-22T04:44:53.755Z,97471.34
2023-12-22T04:47:21.801Z,97472.96
2023-12-22T04:49:48.989Z,97487.83
2023-12-22T04:52:16.143Z,97488.73
2023-12-22T04:54:43.360Z,97492.00
2023-12-22T04:57:10.539Z,97483.20
2023-12-22T04:59:37.761Z,97490.38
2023-12-22T05:02:04.931Z,97484.27
2023-12-22T05:04:32.134Z,97479.17
2023-12-22T05:06:59.548Z,97472.89
2023-12-22T05:09:26.692Z,97477.80
2023-12-22T05:11:53.902Z,97484.92
2023-12-22T05:14:21.215Z,97477.95
2023-12-22T05:16:48.633Z,97471.98
2023-12-22T05:19:15.879Z,97465.63
2023-12-22T05:21:43.119Z,97466.71
2023-12-22T05:24:10.298Z,97461.13
2023-12-22T05:26:37.440Z,97454.93
2023-12-22T05:29:04.652Z,97451.55
2023-12-22T05:31:34.054Z,97448.84
2023-12-22T05:34:01.340Z,97450.21
2023-12-22T05:36:28.516Z,97451.39
2023-12-22T05:38:55.956Z,97446.36
2023-12-22T05:41:23.178Z,97448.79
2023-12-22T05:43:50.448Z,97450.31
2023-12-22T05:46:17.654Z,97442.04
2023-12-22T05:48:45.027Z,97453.05
2023-12-22T05:51:14.834Z,97448.58
2023-12-22T05:53:42.144Z,97447.27
2023-12-22T05:56:20.487Z,97445.36
2023-12-22T05:58:49.569Z,97443.55
2023-12-22T06:01:20.264Z,97442.92
2023-12-22T06:03:47.666Z,97442.73
2023-12-22T06:06:15.011Z,97436.17
2023-12-22T06:08:42.169Z,97429.86
2023-12-22T06:11:09.357Z,97432.11
2023-12-22T06:13:36.610Z,97434.31
2023-12-22T06:16:04.041Z,97432.45
2023-12-22T06:18:31.267Z,97431.43
2023-12-22T06:20:58.464Z,97429.13
2023-12-22T06:23:25.797Z,97427.44
2023-12-22T06:25:53.312Z,97422.86
2023-12-22T06:28:20.878Z,97419.30
2023-12-22T06:30:48.417Z,97416.30
2023-12-22T06:33:15.724Z,97405.64
2023-12-22T06:35:43.049Z,97406.33
2023-12-22T06:38:11.526Z,97405.38
2023-12-22T06:40:39.356Z,97408.75
2023-12-22T06:43:06.745Z,97408.80
2023-12-22T06:45:33.986Z,97403.86
2023-12-22T06:48:01.849Z,97398.36
2023-12-22T06:50:29.315Z,97391.81
2023-12-22T06:52:56.768Z,97394.91
2023-12-22T06:55:24.524Z,97392.21
2023-12-22T06:57:52.163Z,97391.30
2023-12-22T07:00:19.644Z,97386.27
2023-12-22T07:02:48.056Z,97389.72
2023-12-22T07:05:37.583Z,97387.48
2023-12-22T07:08:05.572Z,97378.80
2023-12-22T07:10:32.963Z,97381.42
2023-12-22T07:13:00.226Z,97383.80
2023-12-22T07:15:27.554Z,97376.73
2023-12-22T07:17:55.041Z,97378.95
2023-12-22T07:20:22.295Z,97377.11
2023-12-22T07:22:49.856Z,97372.20
2023-12-22T07:25:17.299Z,97367.45
2023-12-22T07:27:44.547Z,97368.17
2023-12-22T07:30:16.931Z,97364.73
2023-12-22T07:32:45.517Z,97351.89
2023-12-22T07:35:13.056Z,97353.41
2023-12-22T07:37:40.859Z,97358.39
2023-12-22T07:40:10.008Z,97355.64
2023-12-22T07:42:37.884Z,97358.58
2023-12-22T07:45:06.237Z,97353.08
2023-12-22T07:47:34.681Z,97347.73
2023-12-22T07:50:04.074Z,97339.56
2023-12-22T07:52:31.744Z,97346.40
2023-12-22T07:54:58.912Z,97343.73
2023-12-22T07:57:26.066Z,97345.72
2023-12-22T07:59:53.872Z,97345.86
2023-12-22T08:02:21.010Z,97345.98
2023-12-22T08:04:48.263Z,97344.63
2023-12-22T08:07:15.531Z,97342.50
2023-12-22T08:09:42.970Z,97340.00
2023-12-22T08:12:10.231Z,97339.44
2023-12-22T08:14:37.402Z,97327.12
2023-12-22T08:17:05.012Z,97315.33
2023-12-22T08:19:32.866Z,97314.73
2023-12-22T08:22:02.851Z,97315.98
2023-12-22T08:24:32.885Z,97314.99
2023-12-22T08:27:00.245Z,97313.61
2023-12-22T08:29:27.687Z,97313.23
2023-12-22T08:31:55.746Z,97312.08
2023-12-22T08:34:23.126Z,97300.16
2023-12-22T08:36:50.374Z,97288.36
2023-12-22T08:39:17.715Z,97287.29
2023-12-22T08:41:45.962Z,97283.99
2023-12-22T08:44:15.757Z,97290.23
2023-12-22T08:46:43.344Z,97300.99
2023-12-22T08:49:10.548Z,97298.78
2023-12-22T08:51:37.804Z,97293.52
2023-12-22T08:54:05.651Z,97288.92
2023-12-22T08:56:32.847Z,97269.70
2023-12-22T08:59:00.646Z,97269.54
2023-12-22T09:01:28.025Z,97281.54
2023-12-22T09:03:55.285Z,97280.27
2023-12-22T09:06:23.585Z,97276.61
2023-12-22T09:08:51.178Z,97265.65
2023-12-22T09:11:22.087Z,97268.27
2023-12-22T09:13:49.391Z,97269.27
2023-12-22T09:16:22.077Z,97265.41
2023-12-22T09:18:50.997Z,97270.48
2023-12-22T09:21:18.979Z,97271.67
2023-12-22T09:23:47.822Z,97273.27
2023-12-22T09:26:15.336Z,97278.08
2023-12-22T09:28:43.173Z,97276.73
2023-12-22T09:31:10.880Z,97272.73
2023-12-22T09:33:38.308Z,97266.13
2023-12-22T09:37:20.935Z,97267.30
2023-12-22T09:39:48.194Z,97263.00
2023-12-22T09:42:16.675Z,97256.33
2023-12-22T09:44:43.997Z,97261.48
2023-12-22T09:47:13.234Z,97262.14
2023-12-22T09:49:40.450Z,97260.27
2023-12-22T09:52:07.665Z,97266.57
2023-12-22T09:54:34.994Z,97266.52
2023-12-22T09:57:11.307Z,97267.08
2023-12-22T09:59:48.728Z,97265.60
2023-12-22T10:02:15.995Z,97270.48
2023-12-22T10:04:43.189Z,97260.98
2023-12-22T10:07:10.477Z,97249.92
2023-12-22T10:09:37.827Z,97247.13
2023-12-22T10:12:05.282Z,97247.27
2023-12-22T10:14:33.058Z,97245.10
2023-12-22T10:17:00.492Z,97246.04
2023-12-22T10:19:27.902Z,97252.09
2023-12-22T10:21:55.218Z,97245.08
2023-12-22T10:24:47.926Z,97239.70
2023-12-22T10:27:16.274Z,97239.52
2023-12-22T10:29:43.665Z,97237.80
2023-12-22T10:32:11.214Z,97234.36
2023-12-22T10:34:38.643Z,97231.28
2023-12-22T10:37:05.918Z,97223.83
2023-12-22T10:39:33.785Z,97224.87
2023-12-22T10:42:01.151Z,97216.16
2023-12-22T10:44:29.748Z,97216.92
2023-12-22T10:47:00.126Z,97212.58
2023-12-22T10:49:27.638Z,97209.34
2023-12-22T10:51:54.823Z,97202.33
2023-12-22T10:54:22.038Z,97196.27
2023-12-22T10:56:49.815Z,97197.83
2023-12-22T10:59:20.403Z,97202.43
2023-12-22T11:01:47.695Z,97204.11
2023-12-22T11:04:16.096Z,97207.47
2023-12-22T11:06:43.407Z,97198.01
2023-12-22T11:09:11.371Z,97197.40
2023-12-22T11:11:39.260Z,97191.44
2023-12-22T11:14:07.470Z,97191.56
2023-12-22T11:16:36.464Z,97189.88
2023-12-22T11:19:04.236Z,97189.06
2023-12-22T11:21:31.810Z,97181.38
2023-12-22T11:23:58.988Z,97189.35
2023-12-22T11:26:26.906Z,97194.37
2023-12-22T11:28:54.365Z,97201.45
2023-12-22T11:31:22.217Z,97204.89
2023-12-22T11:33:59.124Z,97204.30
2023-12-22T11:36:32.424Z,97205.85
2023-12-22T11:38:59.949Z,97205.56
2023-12-22T11:41:29.488Z,97208.60
2023-12-22T11:43:56.826Z,97209.05
2023-12-22T11:46:25.149Z,97203.86
2023-12-22T11:48:53.548Z,97199.17
2023-12-22T11:51:21.996Z,97202.55
2023-12-22T11:53:49.329Z,97206.79
2023-12-22T11:56:19.530Z,97208.46
2023-12-22T11:58:55.960Z,97203.88
2023-12-22T12:01:25.191Z,97199.16
2023-12-22T12:04:03.421Z,97194.34
2023-12-22T12:06:31.021Z,97188.70
2023-12-22T12:08:58.874Z,97189.27
2023-12-22T12:12:02.148Z,97192.17
2023-12-22T12:14:39.861Z,97189.39
2023-12-22T12:17:09.495Z,97180.77
2023-12-22T12:19:38.753Z,97178.77
2023-12-22T12:22:06.227Z,97174.64
2023-12-22T12:24:33.512Z,97167.63
2023-12-22T12:27:00.730Z,97169.77
2023-12-22T12:29:29.705Z,97169.86
2023-12-22T12:32:04.079Z,97171.25
2023-12-22T12:34:31.789Z,97175.92
2023-12-22T12:37:00.457Z,97169.23
2023-12-22T12:39:32.080Z,97169.89
2023-12-22T12:42:00.610Z,97165.47
2023-12-22T12:44:27.893Z,97162.11
2023-12-22T12:46:55.167Z,97166.77
2023-12-22T12:49:22.696Z,97167.47
2023-12-22T12:51:50.212Z,97171.86
2023-12-22T12:54:17.458Z,97180.91
2023-12-22T12:56:45.467Z,97178.70
2023-12-22T12:59:17.235Z,97178.84
2023-12-22T13:01:46.287Z,97182.90
2023-12-22T13:04:14.510Z,97191.39
2023-12-22T13:06:51.301Z,97195.71
2023-12-22T13:09:19.284Z,97192.31
2023-12-22T13:11:49.570Z,97187.44
2023-12-22T13:14:24.966Z,97188.80
2023-12-22T13:16:53.819Z,97194.27
2023-12-22T13:19:21.061Z,97193.01
2023-12-22T13:21:48.556Z,97193.02
2023-12-22T13:24:19.308Z,97192.37
2023-12-22T13:26:46.598Z,97193.46
2023-12-22T13:29:14.486Z,97189.10
2023-12-22T13:31:44.263Z,97189.69
2023-12-22T13:34:12.210Z,97201.55
2023-12-22T13:36:40.208Z,97208.16
2023-12-22T13:39:07.792Z,97213.80
2023-12-22T13:41:43.124Z,97209.75
2023-12-22T13:44:10.588Z,97206.83
2023-12-22T13:46:38.344Z,97208.54
2023-12-22T13:49:05.772Z,97205.04
2023-12-22T13:51:40.264Z,97203.63
2023-12-22T13:54:07.759Z,97205.58
2023-12-22T13:56:36.747Z,97206.91
2023-12-22T13:59:05.020Z,97208.34
2023-12-22T14:01:32.426Z,97209.78
2023-12-22T14:04:00.664Z,97203.63
2023-12-22T14:06:28.286Z,97201.25
2023-12-22T14:08:56.150Z,97200.27
2023-12-22T14:11:23.370Z,97204.18
2023-12-22T14:13:50.544Z,97208.59
2023-12-22T14:16:17.843Z,97214.23
2023-12-22T14:18:45.803Z,97218.30
2023-12-22T14:21:13.167Z,97213.86
2023-12-22T14:23:40.363Z,97213.30
2023-12-22T14:26:07.705Z,97214.11
2023-12-22T14:28:35.106Z,97215.79
2023-12-22T14:31:02.914Z,97215.24
2023-12-22T14:33:30.177Z,97216.38
2023-12-22T14:35:57.481Z,97217.89
2023-12-22T14:38:24.724Z,97213.19
2023-12-22T14:40:52.011Z,97215.91
2023-12-22T14:43:19.316Z,97214.23
2023-12-22T14:45:46.793Z,97213.84
2023-12-22T14:48:14.201Z,97217.45
2023-12-22T14:50:41.562Z,97219.52
2023-12-22T14:53:11.390Z,97223.15
2023-12-22T14:55:39.979Z,97226.30
2023-12-22T14:58:08.780Z,97226.65
2023-12-22T15:00:36.076Z,97224.05
2023-12-22T15:03:03.813Z,97226.06
2023-12-22T15:05:34.509Z,97227.71
2023-12-22T15:08:04.274Z,97231.73
2023-12-22T15:10:31.749Z,97228.78
2023-12-22T15:12:59.054Z,97224.52
2023-12-22T15:15:26.272Z,97225.42
2023-12-22T15:17:53.705Z,97231.16
2023-12-22T15:20:21.268Z,97229.02
2023-12-22T15:22:48.848Z,97227.73
2023-12-22T15:25:16.486Z,97233.83
2023-12-22T15:27:43.691Z,97233.60
2023-12-22T15:30:11.418Z,97237.64
2023-12-22T15:32:38.523Z,97240.22
2023-12-22T15:35:06.355Z,97238.77
2023-12-22T15:37:36.264Z,97236.62
2023-12-22T15:40:05.137Z,97237.56
2023-12-22T15:42:33.624Z,97235.73
2023-12-22T15:45:00.818Z,97232.89
2023-12-22T15:47:28.078Z,97229.14
2023-12-22T15:49:55.440Z,97226.06
2023-12-22T15:52:22.769Z,97222.31
2023-12-22T15:54:49.918Z,97220.96
2023-12-22T15:57:17.109Z,97220.02
2023-12-22T15:59:44.276Z,97208.40
2023-12-22T16:02:11.595Z,97206.05
2023-12-22T16:04:38.912Z,97210.79
2023-12-22T16:07:06.150Z,97214.25
2023-12-22T16:09:35.832Z,97223.09
2023-12-22T16:12:03.965Z,97225.20
2023-12-22T16:14:35.138Z,97229.55
2023-12-22T16:17:02.599Z,97236.90
2023-12-22T16:19:29.850Z,97239.83
2023-12-22T16:21:59.460Z,97241.05
2023-12-22T16:24:28.938Z,97240.16
2023-12-22T16:26:56.113Z,97233.77
2023-12-22T16:29:23.384Z,97225.98
2023-12-22T16:31:50.659Z,97222.66
2023-12-22T16:34:18.002Z,97221.56
2023-12-22T16:36:47.058Z,97222.31
2023-12-22T16:39:14.204Z,97226.88
2023-12-22T16:41:41.572Z,97222.85
2023-12-22T16:44:08.892Z,97221.54
2023-12-22T16:46:36.288Z,97218.63
2023-12-22T16:49:05.547Z,97212.76
2023-12-22T16:51:32.759Z,97213.45
2023-12-22T16:54:01.053Z,97210.79
2023-12-22T16:56:28.318Z,97212.30
2023-12-22T16:58:55.533Z,97212.77
2023-12-22T17:03:55.806Z,97224.09
2023-12-22T17:06:23.540Z,97224.05
2023-12-22T17:08:53.294Z,97228.81
2023-12-22T17:11:20.920Z,97230.20
2023-12-22T17:13:48.156Z,97228.81
2023-12-22T17:16:15.388Z,97232.44
2023-12-22T17:18:42.887Z,97229.57
2023-12-22T17:21:12.815Z,97231.58
2023-12-22T17:23:40.065Z,97233.10
2023-12-22T17:26:11.309Z,97232.77
2023-12-22T17:28:39.100Z,97232.70
2023-12-22T17:31:07.240Z,97227.86
2023-12-22T17:33:34.930Z,97225.10
2023-12-22T17:36:02.504Z,97224.77
2023-12-22T17:38:29.722Z,97216.97
2023-12-22T17:40:56.963Z,97220.57
2023-12-22T17:43:24.213Z,97220.04
2023-12-22T17:45:53.052Z,97221.35
2023-12-22T17:48:20.298Z,97223.52
2023-12-22T17:50:48.107Z,97223.48
2023-12-22T17:53:15.859Z,97225.86
2023-12-22T17:55:43.056Z,97227.52
2023-12-22T17:58:10.252Z,97225.27
2023-12-22T18:00:37.453Z,97226.33
2023-12-22T18:03:05.222Z,97223.27
2023-12-22T18:05:32.467Z,97222.08
2023-12-22T18:07:59.994Z,97220.08
2023-12-22T18:10:27.593Z,97217.04
2023-12-22T18:12:54.838Z,97218.62
2023-12-22T18:15:22.060Z,97218.73
2023-12-22T18:17:50.522Z,97220.96
2023-12-22T18:20:18.180Z,97213.43
2023-12-22T18:22:45.478Z,97211.29
2023-12-22T18:25:12.814Z,97212.08
2023-12-22T18:27:40.124Z,97214.91
2023-12-22T18:30:08.866Z,97220.56
2023-12-22T18:32:36.260Z,97220.83
2023-12-22T18:35:04.523Z,97224.11
2023-12-22T18:37:31.899Z,97227.58
2023-12-22T18:39:59.372Z,97226.73
2023-12-22T18:42:26.735Z,97225.50
2023-12-22T18:44:56.929Z,97221.09
2023-12-22T18:47:24.591Z,97221.60
2023-12-22T18:49:51.867Z,97220.23
2023-12-22T18:52:18.987Z,97223.35
2023-12-22T18:54:46.208Z,97233.20
2023-12-22T18:57:13.397Z,97231.02
2023-12-22T18:59:40.620Z,97238.17
2023-12-22T19:02:24.000Z,97235.73
2023-12-22T19:04:57.397Z,97235.64
2023-12-22T19:07:24.740Z,97231.34
2023-12-22T19:09:53.593Z,97228.38
2023-12-22T19:12:20.963Z,97230.84
2023-12-22T19:14:48.782Z,97230.52
2023-12-22T19:17:16.025Z,97233.88
2023-12-22T19:19:43.442Z,97233.02
2023-12-22T19:22:10.679Z,97239.32
2023-12-22T19:24:37.912Z,97241.20
2023-12-22T19:27:05.433Z,97238.36
2023-12-22T19:29:32.672Z,97234.15
2023-12-22T19:31:59.927Z,97236.31
2023-12-22T19:34:30.372Z,97234.30
2023-12-22T19:36:57.742Z,97229.61
2023-12-22T19:39:25.200Z,97227.35
2023-12-22T19:41:52.426Z,97229.47
2023-12-22T19:44:19.754Z,97230.27
2023-12-22T19:46:47.272Z,97230.63
2023-12-22T19:49:14.632Z,97232.42
2023-12-22T19:51:42.123Z,97235.99
2023-12-22T19:54:09.815Z,97233.88
2023-12-22T19:56:37.009Z,97232.52
2023-12-22T19:59:04.262Z,97236.96
2023-12-22T20:01:31.634Z,97234.08
2023-12-22T20:03:59.956Z,97232.45
2023-12-22T20:06:28.343Z,97234.45
2023-12-22T20:08:55.518Z,97233.84
2023-12-22T20:11:27.365Z,97228.55
2023-12-22T20:13:56.181Z,97230.09
2023-12-22T20:16:24.850Z,97234.44
2023-12-22T20:18:52.240Z,97239.77
2023-12-22T20:21:21.055Z,97245.99
2023-12-22T20:23:49.188Z,97244.07
2023-12-22T20:26:16.921Z,97246.33
2023-12-22T20:28:44.409Z,97244.79
2023-12-22T20:31:11.925Z,97246.11
2023-12-22T20:33:39.209Z,97238.48
2023-12-22T20:36:06.793Z,97236.42
2023-12-22T20:38:33.981Z,97241.16
2023-12-22T20:41:01.143Z,97245.20
2023-12-22T20:43:28.368Z,97243.45
2023-12-22T20:45:55.548Z,97243.74
2023-12-22T20:48:23.472Z,97241.23
2023-12-22T20:50:51.541Z,97240.64
2023-12-22T20:53:18.725Z,97238.05
2023-12-22T20:55:46.249Z,97237.88
2023-12-22T20:58:13.644Z,97235.87
2023-12-22T21:00:40.789Z,97238.20
2023-12-22T21:03:08.056Z,97249.34
2023-12-22T21:05:35.796Z,97251.09
2023-12-22T21:08:03.781Z,97251.75
2023-12-22T21:10:34.669Z,97257.02
2023-12-22T21:13:02.390Z,97259.29
2023-12-22T21:15:29.603Z,97255.22
2023-12-22T21:17:57.064Z,97259.02
2023-12-22T21:20:25.220Z,97259.69
2023-12-22T21:22:52.653Z,97259.13
2023-12-22T21:25:20.870Z,97256.73
2023-12-22T21:27:48.937Z,97256.81
2023-12-22T21:30:17.341Z,97248.20
2023-12-22T21:32:44.590Z,97246.38
2023-12-22T21:35:12.159Z,97249.14
2023-12-22T21:37:39.469Z,97247.35
2023-12-22T21:40:09.393Z,97247.08
2023-12-22T21:42:38.423Z,97248.96
2023-12-22T21:45:06.975Z,97250.39
2023-12-22T21:47:34.130Z,97255.36
2023-12-22T21:50:03.713Z,97247.94
2023-12-22T21:52:31.029Z,97247.40
2023-12-22T21:56:00.570Z,97246.48
2023-12-22T21:58:29.655Z,97247.58
2023-12-22T22:00:57.176Z,97248.70
2023-12-22T22:03:27.273Z,97253.84
2023-12-22T22:05:54.547Z,97246.96
2023-12-22T22:08:21.886Z,97247.19
2023-12-22T22:10:49.264Z,97246.77
2023-12-22T22:13:17.591Z,97249.15
2023-12-22T22:15:44.801Z,97246.70
2023-12-22T22:18:12.125Z,97244.95
2023-12-22T22:20:39.533Z,97241.26
2023-12-22T22:23:06.695Z,97240.15
2023-12-22T22:25:36.062Z,97239.86
2023-12-22T22:28:04.851Z,97239.11
2023-12-22T22:30:32.384Z,97235.52
2023-12-22T22:32:59.662Z,97236.06
2023-12-22T22:35:26.928Z,97239.63
2023-12-22T22:37:55.386Z,97236.39
2023-12-22T22:40:22.634Z,97231.27
2023-12-22T22:42:49.851Z,97225.72
2023-12-22T22:45:17.344Z,97227.09
2023-12-22T22:47:45.255Z,97225.59
2023-12-22T22:50:12.624Z,97224.38
2023-12-22T22:52:39.938Z,97224.88
2023-12-22T22:55:07.594Z,97232.86
2023-12-22T22:57:34.797Z,97234.19
2023-12-22T23:00:01.950Z,97240.42
2023-12-22T23:02:30.590Z,97240.14
2023-12-22T23:04:57.899Z,97241.96
2023-12-22T23:07:25.182Z,97243.84
2023-12-22T23:09:52.659Z,97245.99
2023-12-22T23:12:19.981Z,97247.92
2023-12-22T23:14:47.146Z,97245.91
2023-12-22T23:17:14.409Z,97245.66
2023-12-22T23:19:42.807Z,97249.46
2023-12-22T23:22:10.043Z,97251.41
2023-12-22T23:24:37.236Z,97252.02
2023-12-22T23:27:04.900Z,97258.45
2023-12-22T23:29:32.099Z,97260.59
2023-12-22T23:32:00.065Z,97262.82
2023-12-22T23:34:27.368Z,97263.70
2023-12-22T23:36:54.635Z,97259.39
2023-12-22T23:39:21.804Z,97258.33
2023-12-22T23:41:48.983Z,97261.05
2023-12-22T23:44:16.211Z,97262.13
2023-12-22T23:46:43.504Z,97255.77
2023-12-22T23:49:11.404Z,97252.70
2023-12-22T23:51:38.806Z,97256.17
2023-12-22T23:54:06.144Z,97256.37
2023-12-22T23:56:33.517Z,97259.98
2023-12-22T23:59:02.145Z,97265.33
